Time;durP1;ratioP1;P1;durP2;ratioP2;P2;SDS_P1;SDS_P2;PMS_P1;PMS_P2;Temp;Humidity;BMP_temperature;BMP_pressure;BME280_temperature;BME280_humidity;BME280_pressure;Samples;Min_cycle;Max_cycle;Signal;HPM_P1;HPM_P2
2022/01/20 00:03:18;;;;;;;12.85;9.50;;;;;;;3.08;87.88;101229.03;4953034;29;20824;-82
2022/01/20 00:27:28;;;;;;;13.68;9.20;;;;;;;3.14;87.41;101251.56;4955704;29;20464;-81
2022/01/20 00:32:56;;;;;;;11.30;9.40;;;;;;;2.99;88.30;101250.66;4956252;29;20398;-80
2022/01/20 00:35:26;;;;;;;12.77;9.45;;;;;;;3.08;88.18;101258.47;4937539;29;20417;-80
2022/01/20 00:37:51;;;;;;;12.65;9.60;;;;;;;3.10;88.41;101264.47;4956205;29;20409;-81
2022/01/20 00:40:18;;;;;;;11.70;9.38;;;;;;;3.12;88.23;101278.53;4942652;29;20390;-80
2022/01/20 00:42:44;;;;;;;10.82;9.45;;;;;;;3.02;88.07;101261.88;4955733;28;20414;-81
2022/01/20 00:45:10;;;;;;;11.50;9.10;;;;;;;2.95;88.38;101271.59;4951982;29;20426;-80
2022/01/20 00:47:38;;;;;;;12.40;9.23;;;;;;;3.02;88.48;101266.38;4944164;29;20465;-82
2022/01/20 00:50:05;;;;;;;11.70;9.13;;;;;;;3.05;87.97;101269.53;4952032;29;20425;-81
2022/01/20 00:52:30;;;;;;;11.27;8.75;;;;;;;3.05;87.79;101277.56;4954912;29;20500;-81
2022/01/20 00:54:55;;;;;;;12.33;9.40;;;;;;;3.10;87.81;101274.34;4955724;29;20434;-82
2022/01/20 00:57:21;;;;;;;11.27;9.10;;;;;;;3.09;88.00;101278.06;4937884;29;20410;-81
2022/01/20 00:59:46;;;;;;;11.70;9.20;;;;;;;3.18;87.39;101282.34;4955688;29;20414;-81
2022/01/20 01:02:12;;;;;;;11.07;8.70;;;;;;;3.04;87.78;101277.75;4953461;29;20414;-81
2022/01/20 01:04:39;;;;;;;13.53;10.50;;;;;;;2.93;87.99;101273.59;4938194;29;20436;-81
2022/01/20 01:07:28;;;;;;;13.90;10.63;;;;;;;2.87;88.45;101270.78;4938004;29;20772;-81
2022/01/20 01:09:54;;;;;;;10.63;9.43;;;;;;;2.99;87.98;101280.13;4938580;29;20437;-82
2022/01/20 01:12:30;;;;;;;11.53;9.27;;;;;;;2.93;88.23;101281.63;4955565;29;20445;-81
2022/01/20 01:14:56;;;;;;;11.60;8.88;;;;;;;2.98;88.34;101294.50;4949719;29;20407;-82
2022/01/20 01:20:09;;;;;;;11.65;8.85;;;;;;;2.89;88.40;101282.19;4943076;29;20903;-81
2022/01/20 01:22:35;;;;;;;10.17;9.07;;;;;;;2.94;88.20;101291.34;4936640;29;20486;-81
2022/01/20 01:25:03;;;;;;;10.40;8.63;;;;;;;2.92;87.69;101285.34;4955444;29;20505;-81
2022/01/20 01:27:34;;;;;;;10.30;9.25;;;;;;;2.83;88.48;101282.88;4955221;29;20874;-81
2022/01/20 01:30:25;;;;;;;10.93;9.38;;;;;;;2.87;89.04;101294.88;4949106;29;20511;-84
2022/01/20 01:32:53;;;;;;;11.43;9.27;;;;;;;2.86;88.34;101291.41;4941296;29;20493;-82
2022/01/20 01:35:22;;;;;;;10.20;8.83;;;;;;;2.89;88.41;101287.53;4955091;29;20401;-82
2022/01/20 01:40:21;;;;;;;10.70;8.88;;;;;;;2.83;88.57;101294.41;4955010;29;20394;-82
2022/01/20 01:42:49;;;;;;;11.05;9.23;;;;;;;2.75;89.29;101293.63;4954805;29;20836;-81
2022/01/20 01:45:18;;;;;;;11.55;9.32;;;;;;;2.72;89.67;101292.13;4953550;29;20848;-82
2022/01/20 01:47:45;;;;;;;10.90;9.05;;;;;;;2.90;89.11;101287.34;4932535;29;20405;-82
2022/01/20 01:50:10;;;;;;;11.63;9.30;;;;;;;2.93;88.64;101288.84;4937562;29;20432;-81
2022/01/20 01:52:36;;;;;;;11.27;9.02;;;;;;;2.87;88.84;101284.19;4954432;29;20925;-81
2022/01/20 01:55:01;;;;;;;11.83;8.40;;;;;;;2.84;89.10;101284.53;4953599;29;20486;-81
2022/01/20 01:57:27;;;;;;;10.80;9.55;;;;;;;2.92;89.17;101292.53;4922034;29;20735;-81
2022/01/20 01:59:54;;;;;;;9.82;8.50;;;;;;;2.93;88.75;101295.03;4936578;29;20914;-81
2022/01/20 02:02:20;;;;;;;9.57;8.65;;;;;;;2.87;88.95;101292.22;4954605;29;20410;-81
2022/01/20 02:04:45;;;;;;;11.05;8.75;;;;;;;2.97;88.84;101282.13;4953487;29;20500;-81
2022/01/20 02:18:25;;;;;;;10.07;8.77;;;;;;;2.90;88.81;101295.38;4940159;29;20477;-81
2022/01/20 02:20:51;;;;;;;9.63;8.48;;;;;;;2.87;89.18;101294.88;4934778;29;20504;-81
2022/01/20 02:23:17;;;;;;;10.18;8.57;;;;;;;2.78;89.10;101298.63;4953276;29;20417;-81
2022/01/20 02:25:42;;;;;;;10.83;8.50;;;;;;;2.85;89.41;101295.09;4953963;29;20453;-82
2022/01/20 02:28:10;;;;;;;10.57;8.43;;;;;;;2.93;88.94;101295.03;4953879;29;20402;-81
2022/01/20 02:30:36;;;;;;;10.15;8.55;;;;;;;2.95;88.61;101294.88;4936642;29;20892;-81
2022/01/20 02:33:06;;;;;;;9.13;8.10;;;;;;;2.92;88.67;101304.09;4954005;29;20413;-81
2022/01/20 02:35:35;;;;;;;9.10;8.07;;;;;;;2.93;88.92;101296.91;4952726;29;20909;-81
2022/01/20 02:38:07;;;;;;;9.63;7.88;;;;;;;2.90;88.81;101306.09;4936616;29;20406;-81
2022/01/20 02:45:55;;;;;;;9.13;7.97;;;;;;;2.99;88.71;101288.16;4953145;29;20424;-81
2022/01/20 02:48:20;;;;;;;10.83;7.77;;;;;;;3.07;87.71;101291.59;4954008;29;20754;-81
2022/01/20 02:50:46;;;;;;;10.60;8.17;;;;;;;3.11;87.58;101294.78;4952274;29;20489;-81
2022/01/20 02:53:11;;;;;;;9.53;8.20;;;;;;;3.12;87.66;101293.78;4953415;29;20882;-81
2022/01/20 02:55:40;;;;;;;8.70;7.80;;;;;;;3.07;87.89;101288.94;4936492;29;20421;-81
2022/01/20 02:58:06;;;;;;;10.80;7.80;;;;;;;2.95;88.44;101293.03;4936239;29;20425;-81
2022/01/20 03:00:33;;;;;;;9.07;8.18;;;;;;;3.00;88.50;101279.09;4952972;29;20421;-82
2022/01/20 03:02:59;;;;;;;9.07;7.43;;;;;;;3.04;88.16;101281.25;4934681;29;20457;-81
2022/01/20 03:05:25;;;;;;;8.53;7.63;;;;;;;2.96;88.56;101278.63;4953714;29;20757;-81
2022/01/20 03:07:50;;;;;;;10.10;7.80;;;;;;;2.98;88.51;101273.09;4936227;29;20413;-81
2022/01/20 03:10:17;;;;;;;8.77;7.88;;;;;;;3.00;88.41;101279.94;4935969;29;20956;-81
2022/01/20 03:12:42;;;;;;;9.77;8.13;;;;;;;2.98;88.02;101290.00;4953358;29;20453;-81
2022/01/20 03:15:08;;;;;;;9.43;7.32;;;;;;;3.06;88.33;101278.41;4933722;29;20426;-81
2022/01/20 03:17:33;;;;;;;9.07;7.70;;;;;;;3.16;87.12;101275.50;4953474;29;20421;-81
2022/01/20 03:19:59;;;;;;;11.18;7.53;;;;;;;3.16;87.64;101270.16;4953496;29;20501;-81
2022/01/20 03:22:24;;;;;;;9.23;8.05;;;;;;;3.20;87.46;101274.97;4953301;29;20802;-81
2022/01/20 03:24:50;;;;;;;9.07;7.57;;;;;;;3.10;87.21;101266.31;4953025;29;20512;-81
2022/01/20 03:27:16;;;;;;;9.02;7.90;;;;;;;3.07;87.89;101272.88;4936554;29;20885;-81
2022/01/20 03:29:41;;;;;;;12.00;9.43;;;;;;;3.13;87.57;101264.13;4952233;29;20414;-81
2022/01/20 03:32:09;;;;;;;11.33;8.33;;;;;;;3.18;87.42;101263.59;4952620;29;20410;-81
2022/01/20 03:34:34;;;;;;;10.00;8.47;;;;;;;3.04;87.90;101267.03;4937656;28;20473;-82
2022/01/20 03:37:03;;;;;;;9.33;8.23;;;;;;;2.94;88.25;101263.72;4920465;29;20414;-81
2022/01/20 03:39:29;;;;;;;8.80;7.78;;;;;;;3.01;88.28;101260.19;4953577;29;20401;-81
2022/01/20 03:41:55;;;;;;;9.85;8.23;;;;;;;2.96;88.55;101257.22;4952490;28;20414;-82
2022/01/20 03:44:20;;;;;;;10.00;8.10;;;;;;;2.85;88.67;101259.44;4955719;29;20459;-81
2022/01/20 03:46:45;;;;;;;9.43;8.37;;;;;;;2.78;89.48;101259.31;4955659;29;20413;-81
2022/01/20 03:49:25;;;;;;;9.13;8.23;;;;;;;2.87;89.52;101260.09;4954679;29;20418;-81
2022/01/20 03:51:51;;;;;;;9.87;8.17;;;;;;;2.96;88.96;101269.75;4953868;29;20754;-81
2022/01/20 03:54:16;;;;;;;11.07;8.23;;;;;;;2.88;89.32;101264.44;4957245;29;20406;-81
2022/01/20 03:56:41;;;;;;;10.40;9.00;;;;;;;3.03;88.86;101270.72;4955744;29;20852;-82
2022/01/20 03:59:07;;;;;;;9.53;8.47;;;;;;;3.04;88.30;101270.53;4939739;29;20421;-81
2022/01/20 04:01:32;;;;;;;12.80;9.57;;;;;;;3.00;88.63;101274.56;4956806;29;20398;-81
2022/01/20 04:03:57;;;;;;;12.60;9.43;;;;;;;2.91;89.46;101286.34;4953259;28;20902;-81
2022/01/20 04:06:24;;;;;;;9.80;8.60;;;;;;;2.98;89.17;101286.47;4938781;29;20410;-81
2022/01/20 04:08:50;;;;;;;10.38;8.70;;;;;;;2.97;89.40;101291.00;4939579;29;20408;-81
2022/01/20 04:11:24;;;;;;;11.00;9.70;;;;;;;2.87;89.69;101287.69;4956864;29;20972;-81
2022/01/20 04:13:51;;;;;;;11.80;9.40;;;;;;;2.80;90.11;101284.03;4939459;29;20826;-81
2022/01/20 04:16:34;;;;;;;11.40;9.43;;;;;;;2.86;90.29;101290.56;4955651;29;20805;-82
2022/01/20 04:19:03;;;;;;;12.38;10.30;;;;;;;2.96;89.67;101283.16;4954310;29;20552;-82
2022/01/20 04:21:30;;;;;;;11.32;9.57;;;;;;;2.91;89.91;101281.00;4938632;29;20406;-82
2022/01/20 04:23:59;;;;;;;11.43;9.75;;;;;;;2.93;89.79;101278.97;4938738;29;20860;-81
2022/01/20 04:26:25;;;;;;;12.32;10.48;;;;;;;2.98;89.58;101287.31;4939172;29;20421;-81
2022/01/20 04:28:56;;;;;;;13.77;10.60;;;;;;;3.00;89.82;101293.31;4956208;29;20413;-81
2022/01/20 04:31:22;;;;;;;13.98;10.13;;;;;;;2.96;89.83;101293.88;4955348;29;20844;-81
2022/01/20 04:33:47;;;;;;;13.50;10.80;;;;;;;2.91;89.88;101297.06;4956487;29;20471;-82
2022/01/20 04:36:13;;;;;;;12.20;10.90;;;;;;;2.97;89.84;101304.38;4949142;29;20508;-81
2022/01/20 04:38:38;;;;;;;14.03;10.77;;;;;;;3.03;89.56;101300.19;4947294;29;20425;-83
2022/01/20 04:41:04;;;;;;;12.13;10.20;;;;;;;3.14;89.36;101299.78;4955622;28;20492;-81
2022/01/20 04:43:29;;;;;;;11.70;10.48;;;;;;;3.13;88.85;101298.09;4958060;28;20417;-81
2022/01/20 04:46:06;;;;;;;14.60;11.85;;;;;;;3.05;89.08;101301.69;4955797;29;20406;-81
2022/01/20 04:59:11;;;;;;;17.05;12.82;;;;;;;3.18;88.67;101302.94;4954669;29;20413;-81
2022/01/20 05:01:43;;;;;;;15.43;11.60;;;;;;;3.00;89.43;101305.88;4940675;29;20722;-81
2022/01/20 05:04:08;;;;;;;14.98;11.52;;;;;;;3.01;89.70;101310.22;4955282;29;20414;-81
2022/01/20 05:06:39;;;;;;;15.87;12.53;;;;;;;2.94;89.75;101319.97;4954793;28;20505;-81
2022/01/20 05:09:05;;;;;;;16.33;12.43;;;;;;;3.05;89.51;101306.19;4955575;29;20889;-81
2022/01/20 05:11:30;;;;;;;15.97;12.77;;;;;;;3.18;89.46;101305.63;4955008;28;20406;-82
2022/01/20 05:13:57;;;;;;;16.40;11.83;;;;;;;3.07;89.60;101288.94;4956874;28;20780;-82
2022/01/20 05:16:24;;;;;;;17.95;12.57;;;;;;;3.09;89.77;101289.59;4941398;29;20492;-81
2022/01/20 05:18:50;;;;;;;14.75;11.90;;;;;;;3.14;89.19;101286.38;4955211;28;20452;-81
2022/01/20 05:21:21;;;;;;;16.60;13.10;;;;;;;3.03;89.68;101287.59;4922360;29;20492;-82
2022/01/20 05:23:49;;;;;;;17.95;13.80;;;;;;;3.08;89.85;101285.25;4938272;28;20414;-80
2022/01/20 05:26:16;;;;;;;17.40;13.50;;;;;;;3.08;89.44;101276.38;4955136;29;20434;-82
2022/01/20 05:28:44;;;;;;;17.88;14.57;;;;;;;3.11;89.23;101290.25;4954693;28;20412;-82
2022/01/20 05:31:09;;;;;;;19.10;14.25;;;;;;;3.00;89.78;101287.97;4938327;29;20914;-82
2022/01/20 05:33:35;;;;;;;17.77;12.90;;;;;;;3.09;89.73;101278.91;4961862;28;20410;-82
2022/01/20 05:36:01;;;;;;;19.40;13.70;;;;;;;3.18;89.33;101277.00;4952813;28;20912;-82
2022/01/20 05:38:28;;;;;;;16.38;12.30;;;;;;;3.22;88.95;101264.09;4950248;28;20825;-82
2022/01/20 05:40:54;;;;;;;21.77;14.70;;;;;;;3.28;88.73;101279.44;4957630;28;20422;-82
2022/01/20 05:43:19;;;;;;;21.23;14.97;;;;;;;3.20;89.29;101285.66;4950973;28;20508;-82
2022/01/20 05:45:44;;;;;;;23.53;15.73;;;;;;;3.16;89.16;101291.56;4954261;29;20410;-82
2022/01/20 05:48:14;;;;;;;23.35;16.20;;;;;;;3.23;89.37;101295.22;4953715;28;20414;-81
2022/01/20 05:50:39;;;;;;;25.52;17.08;;;;;;;3.31;89.19;101296.00;4954744;29;20422;-80
2022/01/20 05:53:06;;;;;;;21.40;15.57;;;;;;;3.28;88.93;101285.63;4949035;29;20470;-80
2022/01/20 05:55:32;;;;;;;21.38;15.55;;;;;;;3.13;89.39;101288.22;4921015;29;20999;-82
2022/01/20 05:57:57;;;;;;;22.10;15.18;;;;;;;3.17;89.03;101293.22;4955270;28;20465;-85
2022/01/20 06:00:25;;;;;;;18.73;14.70;;;;;;;3.14;89.06;101286.38;4954634;28;20406;-81
2022/01/20 06:05:35;;;;;;;20.60;14.48;;;;;;;3.10;89.48;101288.56;4953274;28;20420;-81
2022/01/20 06:08:01;;;;;;;19.43;14.53;;;;;;;3.11;89.06;101292.09;4953301;29;20454;-81
2022/01/20 06:10:26;;;;;;;20.10;15.50;;;;;;;3.07;88.96;101288.09;4937314;29;20394;-81
2022/01/20 06:12:51;;;;;;;20.90;15.77;;;;;;;3.01;89.04;101297.66;4937492;29;20877;-81
2022/01/20 06:15:17;;;;;;;22.23;15.15;;;;;;;2.98;89.81;101294.50;4954537;29;20402;-81
2022/01/20 06:17:42;;;;;;;22.13;15.00;;;;;;;3.02;89.67;101298.50;4953922;29;20762;-81
2022/01/20 06:20:09;;;;;;;19.87;15.33;;;;;;;2.97;89.71;101298.19;4937674;29;20792;-82
2022/01/20 06:22:36;;;;;;;25.00;17.15;;;;;;;2.98;90.12;101295.34;4953472;29;20785;-81
2022/01/20 06:25:02;;;;;;;21.73;15.67;;;;;;;3.01;90.13;101297.66;4953742;29;20927;-81
2022/01/20 06:27:28;;;;;;;22.33;16.67;;;;;;;3.04;89.97;101297.31;4953345;29;20489;-81
2022/01/20 06:29:54;;;;;;;23.80;16.55;;;;;;;3.06;89.78;101289.94;4954157;29;20506;-81
2022/01/20 06:32:19;;;;;;;23.25;16.92;;;;;;;3.06;89.72;101289.94;4952371;29;20993;-81
2022/01/20 06:34:44;;;;;;;24.53;17.07;;;;;;;3.01;89.85;101264.69;4953325;29;20545;-81
2022/01/20 06:37:10;;;;;;;27.10;17.83;;;;;;;2.98;89.86;101259.69;4953223;29;20567;-81
2022/01/20 06:39:35;;;;;;;27.30;17.70;;;;;;;2.97;90.23;101268.72;4936714;29;20390;-81
2022/01/20 06:42:00;;;;;;;24.20;17.30;;;;;;;3.01;90.35;101276.25;4953803;29;20972;-81
2022/01/20 06:44:25;;;;;;;22.77;17.20;;;;;;;3.12;90.50;101278.53;4935788;29;20425;-81
2022/01/20 06:46:51;;;;;;;28.08;17.05;;;;;;;3.23;89.87;101276.47;4936237;29;20936;-81
2022/01/20 06:49:18;;;;;;;22.00;15.88;;;;;;;3.21;90.12;101283.84;4934351;29;20488;-81
2022/01/20 06:51:44;;;;;;;21.58;16.55;;;;;;;3.21;89.55;101281.16;4936143;29;20422;-81
2022/01/20 06:54:09;;;;;;;21.17;15.85;;;;;;;3.17;89.80;101285.19;4953644;29;20913;-81
2022/01/20 06:56:35;;;;;;;22.83;16.27;;;;;;;3.21;89.67;101295.38;4937659;29;20478;-81
2022/01/20 06:59:00;;;;;;;23.17;15.77;;;;;;;3.30;89.60;101306.88;4953284;29;20497;-81
2022/01/20 07:01:25;;;;;;;19.80;15.10;;;;;;;3.29;89.32;101306.06;4952231;29;20429;-82
2022/01/20 07:03:50;;;;;;;19.87;15.87;;;;;;;3.23;89.59;101306.75;4953688;29;20417;-82
2022/01/20 07:06:16;;;;;;;20.73;15.83;;;;;;;3.16;89.37;101310.31;4953022;29;20882;-81
2022/01/20 07:08:41;;;;;;;22.27;16.63;;;;;;;3.11;90.04;101311.69;4953484;29;20436;-81
2022/01/20 07:11:06;;;;;;;23.53;17.47;;;;;;;3.05;89.94;101303.50;4952922;29;20418;-81
2022/01/20 07:13:32;;;;;;;22.80;16.93;;;;;;;3.12;89.98;101302.66;4953630;29;20405;-82
2022/01/20 07:15:57;;;;;;;23.17;16.52;;;;;;;3.17;89.66;101314.66;4952581;29;20981;-81
2022/01/20 07:18:23;;;;;;;21.67;16.20;;;;;;;3.19;89.43;101326.88;4952655;29;20398;-81
2022/01/20 07:20:48;;;;;;;24.23;15.97;;;;;;;3.16;89.82;101329.91;4953559;29;20782;-81
2022/01/20 07:23:13;;;;;;;21.25;15.95;;;;;;;3.18;89.60;101338.59;4953364;29;20473;-82
2022/01/20 07:25:39;;;;;;;21.37;15.07;;;;;;;3.24;89.71;101326.34;4935550;29;20414;-81
2022/01/20 07:28:04;;;;;;;20.87;15.57;;;;;;;3.16;89.71;101343.31;4947401;29;20425;-81
2022/01/20 07:30:32;;;;;;;20.93;15.60;;;;;;;3.11;89.61;101351.00;4953080;29;20409;-81
2022/01/20 07:33:02;;;;;;;20.70;14.77;;;;;;;3.09;90.07;101359.25;4953490;29;20472;-82
2022/01/20 07:35:27;;;;;;;23.38;16.33;;;;;;;3.19;89.77;101368.91;4952746;29;20449;-81
2022/01/20 07:37:52;;;;;;;20.07;14.83;;;;;;;3.22;89.84;101372.06;4953345;29;20398;-81
2022/01/20 07:40:18;;;;;;;21.25;14.90;;;;;;;3.30;89.55;101382.72;4952729;29;20398;-78
2022/01/20 07:42:43;;;;;;;22.13;15.65;;;;;;;3.31;89.64;101387.06;4934170;29;20493;-80
2022/01/20 07:45:09;;;;;;;20.10;15.10;;;;;;;3.28;89.27;101384.75;4937398;29;20398;-81
2022/01/20 07:47:35;;;;;;;20.33;15.13;;;;;;;3.29;89.27;101369.53;4950064;28;20468;-82
2022/01/20 07:50:00;;;;;;;20.02;15.38;;;;;;;3.21;89.69;101381.09;4952770;29;20398;-80
2022/01/20 07:52:26;;;;;;;21.77;15.13;;;;;;;3.21;89.44;101383.78;4943997;29;20402;-82
2022/01/20 07:54:51;;;;;;;19.27;14.90;;;;;;;3.23;89.50;101387.09;4953046;29;20897;-81
2022/01/20 07:57:16;;;;;;;24.67;15.43;;;;;;;3.27;89.45;101382.22;4952863;29;20965;-79
2022/01/20 07:59:42;;;;;;;21.80;14.52;;;;;;;3.32;89.17;101390.59;4934494;29;20544;-80
2022/01/20 08:02:08;;;;;;;24.33;15.50;;;;;;;3.29;89.48;101385.59;4951220;29;20761;-78
2022/01/20 08:04:37;;;;;;;20.27;14.90;;;;;;;3.24;89.74;101371.88;4951415;29;20438;-80
2022/01/20 08:07:02;;;;;;;25.08;15.38;;;;;;;3.31;89.32;101368.31;4953177;29;20397;-79
2022/01/20 08:09:28;;;;;;;18.65;14.75;;;;;;;3.37;89.29;101364.94;4952610;29;20882;-80
2022/01/20 08:11:53;;;;;;;21.90;15.43;;;;;;;3.36;88.95;101367.81;4952708;29;20437;-81
2022/01/20 08:14:18;;;;;;;21.67;15.60;;;;;;;3.36;89.09;101363.25;4933790;29;20472;-80
2022/01/20 08:16:44;;;;;;;22.03;15.30;;;;;;;3.29;89.11;101369.53;4952814;29;20409;-80
2022/01/20 08:19:09;;;;;;;22.55;15.48;;;;;;;3.25;89.34;101381.59;4948507;29;20868;-81
2022/01/20 08:21:34;;;;;;;21.47;14.17;;;;;;;3.24;89.81;101401.34;4952928;28;20523;-80
2022/01/20 08:23:59;;;;;;;21.63;14.27;;;;;;;3.33;89.49;101405.63;4934963;29;20484;-81
2022/01/20 08:26:25;;;;;;;19.25;14.30;;;;;;;3.35;89.38;101409.84;4952476;29;20500;-80
2022/01/20 08:28:50;;;;;;;23.43;14.60;;;;;;;3.45;89.04;101404.25;4946746;28;20422;-78
2022/01/20 08:31:15;;;;;;;21.77;13.97;;;;;;;3.56;89.04;101415.41;4935968;29;20742;-79
2022/01/20 08:33:41;;;;;;;18.50;12.90;;;;;;;3.57;88.25;101410.88;4948675;28;20512;-78
2022/01/20 08:36:06;;;;;;;18.17;13.03;;;;;;;3.49;88.76;101424.34;4955889;29;20460;-78
2022/01/20 08:38:32;;;;;;;20.67;13.37;;;;;;;3.56;89.04;101419.94;4955861;29;20442;-81
2022/01/20 08:40:57;;;;;;;18.53;13.73;;;;;;;3.69;88.27;101414.81;4955184;29;20414;-79
2022/01/20 08:43:23;;;;;;;28.97;15.40;;;;;;;3.69;87.71;101416.69;4955639;29;20425;-78
2022/01/20 08:45:48;;;;;;;20.58;14.10;;;;;;;3.70;87.88;101419.19;4955914;29;20406;-79
2022/01/20 08:48:14;;;;;;;25.43;14.43;;;;;;;3.69;87.98;101406.78;4955624;29;20507;-79
2022/01/20 08:50:41;;;;;;;23.48;14.15;;;;;;;3.65;87.94;101424.25;4956173;29;20415;-79
2022/01/20 08:53:07;;;;;;;27.23;15.30;;;;;;;3.73;87.77;101426.03;4955837;29;20475;-79
2022/01/20 08:55:33;;;;;;;23.38;12.77;;;;;;;3.72;87.95;101427.06;4955129;29;20422;-79
2022/01/20 08:57:59;;;;;;;20.23;12.80;;;;;;;3.68;87.76;101439.97;4933507;29;20409;-79
2022/01/20 09:00:30;;;;;;;19.87;12.33;;;;;;;3.77;87.93;101446.13;4955993;29;20398;-78
2022/01/20 09:02:56;;;;;;;20.95;11.63;;;;;;;3.88;87.33;101437.69;4954863;29;20406;-77
2022/01/20 09:05:22;;;;;;;19.10;12.60;;;;;;;3.97;86.87;101452.69;4955057;29;20831;-79
2022/01/20 09:07:47;;;;;;;18.60;10.93;;;;;;;4.02;86.68;101448.47;4955424;29;20414;-78
2022/01/20 09:10:19;;;;;;;22.63;12.80;;;;;;;3.95;86.67;101449.38;4955400;29;20506;-78
2022/01/20 09:15:28;;;;;;;21.80;11.23;;;;;;;3.92;86.99;101458.59;4953869;29;20497;-79
2022/01/20 09:17:59;;;;;;;20.90;11.68;;;;;;;3.96;86.66;101467.09;4937231;29;20409;-78
2022/01/20 09:20:24;;;;;;;19.20;11.55;;;;;;;3.97;86.82;101458.91;4955379;29;20969;-78
2022/01/20 09:22:51;;;;;;;20.13;10.68;;;;;;;3.99;86.96;101454.19;4954722;29;20406;-78
2022/01/20 09:25:17;;;;;;;23.65;11.88;;;;;;;4.08;86.51;101442.38;4937328;29;20409;-78
2022/01/20 09:27:43;;;;;;;17.08;11.23;;;;;;;3.99;86.91;101437.25;4938359;29;20406;-79
2022/01/20 09:30:09;;;;;;;20.42;12.10;;;;;;;4.08;86.96;101428.97;4954715;29;20413;-79
2022/01/20 09:32:38;;;;;;;16.85;11.23;;;;;;;4.26;86.89;101425.16;4938282;29;20405;-78
2022/01/20 09:35:04;;;;;;;19.95;10.93;;;;;;;4.35;85.70;101413.31;4949330;29;20964;-78
2022/01/20 09:37:30;;;;;;;20.30;12.35;;;;;;;4.30;86.16;101410.38;4954326;29;20765;-78
2022/01/20 09:39:56;;;;;;;19.60;10.68;;;;;;;4.49;85.62;101418.75;4936687;28;20405;-79
2022/01/20 09:42:23;;;;;;;18.30;10.25;;;;;;;4.64;84.33;101418.78;4945360;29;20425;-80
2022/01/20 09:44:48;;;;;;;20.02;11.32;;;;;;;4.59;84.60;101421.16;4953008;29;20430;-79
2022/01/20 09:47:18;;;;;;;16.17;10.98;;;;;;;4.65;84.60;101432.00;4954511;28;20881;-79
2022/01/20 09:49:43;;;;;;;19.23;10.65;;;;;;;4.62;84.50;101434.22;4953708;29;20418;-79
2022/01/20 09:52:09;;;;;;;17.77;10.87;;;;;;;4.67;84.50;101447.94;4951440;29;20923;-78
2022/01/20 09:54:34;;;;;;;24.63;11.50;;;;;;;4.47;85.25;101425.31;4953910;28;20418;-77
2022/01/20 09:57:00;;;;;;;21.53;11.37;;;;;;;4.42;85.04;101430.38;4952099;29;20527;-77
2022/01/20 09:59:27;;;;;;;17.40;11.47;;;;;;;4.35;85.62;101426.75;4954100;29;20410;-77
2022/01/20 10:01:57;;;;;;;19.88;12.20;;;;;;;4.33;86.23;101435.00;4953760;29;20502;-77
2022/01/20 10:04:25;;;;;;;20.00;11.18;;;;;;;4.36;85.87;101434.63;4936667;29;20433;-78
2022/01/20 10:07:06;;;;;;;20.83;11.65;;;;;;;4.38;86.08;101434.47;4954748;29;20413;-78
2022/01/20 10:09:36;;;;;;;21.38;12.10;;;;;;;4.54;85.50;101451.25;4954235;29;20825;-78
2022/01/20 10:12:03;;;;;;;27.20;11.43;;;;;;;4.57;85.34;101450.06;4953843;29;20441;-78
2022/01/20 10:14:46;;;;;;;23.98;11.18;;;;;;;4.66;85.64;101467.75;4936864;29;20402;-79
2022/01/20 10:17:21;;;;;;;24.45;11.63;;;;;;;4.58;84.86;101467.81;4953418;29;20905;-78
2022/01/20 10:19:54;;;;;;;21.48;10.60;;;;;;;4.67;84.88;101464.91;4943462;28;20425;-79
2022/01/20 10:22:23;;;;;;;25.47;12.47;;;;;;;4.78;84.87;101466.28;4946080;29;20405;-77
2022/01/20 10:25:13;;;;;;;19.85;11.48;;;;;;;4.96;84.01;101472.16;4954155;29;20426;-80
2022/01/20 10:27:51;;;;;;;25.60;12.07;;;;;;;4.97;83.96;101473.81;4947331;29;20433;-79
2022/01/20 10:30:17;;;;;;;19.77;12.23;;;;;;;5.00;83.67;101465.41;4954299;29;20861;-79
2022/01/20 10:32:51;;;;;;;20.70;11.63;;;;;;;4.86;84.06;101478.81;4953729;29;20406;-80
2022/01/20 10:35:23;;;;;;;18.55;11.45;;;;;;;4.75;84.13;101480.06;4953806;29;20417;-80
2022/01/20 10:38:00;;;;;;;29.67;13.30;;;;;;;4.95;83.72;101491.97;4952973;29;20394;-79
2022/01/20 10:40:27;;;;;;;24.27;12.75;;;;;;;4.91;84.02;101490.66;4950888;29;20900;-79
2022/01/20 10:42:53;;;;;;;27.00;13.95;;;;;;;4.82;83.83;101485.56;4953393;29;20406;-80
2022/01/20 10:45:22;;;;;;;29.95;11.95;;;;;;;4.64;84.49;101488.59;4953858;29;20409;-79
2022/01/20 10:47:50;;;;;;;22.00;11.68;;;;;;;4.85;84.36;101480.66;4953904;29;20455;-79
2022/01/20 10:50:18;;;;;;;20.63;12.75;;;;;;;5.02;83.76;101486.69;4953851;29;20398;-80
2022/01/20 10:52:44;;;;;;;29.85;13.52;;;;;;;4.92;83.43;101484.28;4952456;28;20866;-78
2022/01/20 10:55:30;;;;;;;30.33;14.38;;;;;;;4.80;84.43;101469.63;4953670;29;20731;-79
2022/01/20 10:58:07;;;;;;;25.02;13.32;;;;;;;4.89;84.27;101467.69;4953070;29;20401;-78
2022/01/20 11:00:39;;;;;;;25.90;11.65;;;;;;;4.88;83.98;101464.16;4953377;29;20903;-78
2022/01/20 11:03:05;;;;;;;19.97;11.13;;;;;;;4.78;84.61;101465.44;4953341;29;20584;-79
2022/01/20 11:05:30;;;;;;;25.75;11.40;;;;;;;4.84;84.00;101462.84;4953393;29;20402;-79
2022/01/20 11:07:56;;;;;;;21.83;10.77;;;;;;;4.82;84.48;101461.38;4952937;29;20762;-79
2022/01/20 11:10:21;;;;;;;26.33;11.03;;;;;;;4.98;83.62;101458.53;4950633;29;20413;-80
2022/01/20 11:12:47;;;;;;;22.87;11.37;;;;;;;4.92;83.95;101454.72;4953174;29;20452;-80
2022/01/20 11:15:18;;;;;;;23.30;10.65;;;;;;;4.91;84.46;101449.53;4953190;29;20449;-80
2022/01/20 11:17:49;;;;;;;23.73;10.88;;;;;;;5.02;83.51;101443.72;4953373;29;20493;-80
2022/01/20 11:20:20;;;;;;;23.92;11.35;;;;;;;5.00;83.75;101437.69;4952906;29;20508;-80
2022/01/20 11:23:07;;;;;;;27.83;11.65;;;;;;;4.89;83.97;101448.88;4953344;29;20406;-80
2022/01/20 11:25:35;;;;;;;23.85;10.20;;;;;;;4.83;84.18;101444.25;4952421;29;20522;-81
2022/01/20 11:28:07;;;;;;;21.77;10.10;;;;;;;4.84;84.14;101438.69;4953134;29;20390;-81
2022/01/20 11:30:35;;;;;;;24.70;10.68;;;;;;;4.96;83.54;101428.34;4945514;29;20447;-80
2022/01/20 11:33:06;;;;;;;22.30;10.18;;;;;;;4.89;84.11;101430.94;4952963;29;20893;-81
2022/01/20 11:35:46;;;;;;;24.30;10.43;;;;;;;4.89;84.00;101416.66;4953277;29;20405;-80
2022/01/20 11:38:14;;;;;;;18.83;9.32;;;;;;;5.00;83.39;101417.06;4952247;28;20414;-79
2022/01/20 11:41:01;;;;;;;21.05;9.60;;;;;;;5.09;83.17;101418.63;4953359;29;20493;-79
2022/01/20 11:43:39;;;;;;;21.83;9.23;;;;;;;5.31;82.08;101407.94;4952793;29;20417;-80
2022/01/20 11:46:13;;;;;;;25.48;9.98;;;;;;;5.03;81.52;101411.31;4948332;29;20421;-83
2022/01/20 11:49:00;;;;;;;20.85;8.85;;;;;;;4.74;82.62;101418.50;4953084;29;20449;-81
2022/01/20 11:51:28;;;;;;;16.90;8.45;;;;;;;4.68;82.79;101403.94;4952742;29;20424;-81
2022/01/20 11:54:04;;;;;;;19.87;8.20;;;;;;;4.72;83.07;101400.72;4967643;28;20582;-81
2022/01/20 11:56:36;;;;;;;18.92;7.85;;;;;;;4.91;82.96;101414.63;4935745;29;20789;-80
2022/01/20 11:59:05;;;;;;;14.53;6.77;;;;;;;5.12;82.86;101403.97;4928152;29;20980;-79
2022/01/20 12:01:41;;;;;;;13.45;6.65;;;;;;;5.61;81.83;101402.31;4936378;29;20421;-80
2022/01/20 12:04:07;;;;;;;20.33;7.63;;;;;;;5.94;80.01;101404.56;4953810;28;20480;-80
2022/01/20 12:06:44;;;;;;;13.90;6.70;;;;;;;5.96;79.67;101392.56;4950528;28;20417;-83
2022/01/20 12:09:10;;;;;;;14.95;7.57;;;;;;;5.96;78.95;101397.94;4954162;29;20417;-80
2022/01/20 12:11:45;;;;;;;13.55;6.25;;;;;;;5.94;78.87;101418.84;4955922;29;20904;-81
2022/01/20 12:14:11;;;;;;;11.50;5.72;;;;;;;5.92;77.96;101444.28;4954634;29;20770;-80
2022/01/20 12:16:38;;;;;;;5.30;2.17;;;;;;;5.33;77.31;101449.75;4951987;29;20828;-81
2022/01/20 12:19:08;;;;;;;4.78;2.00;;;;;;;4.82;78.39;101446.09;4955727;29;20425;-80
2022/01/20 12:21:35;;;;;;;5.20;2.42;;;;;;;4.39;80.33;101445.00;4952348;29;20398;-81
2022/01/20 12:24:01;;;;;;;3.72;2.35;;;;;;;4.27;80.76;101451.81;4947679;29;20455;-82
2022/01/20 12:26:26;;;;;;;4.60;2.33;;;;;;;4.14;80.50;101448.91;4935967;29;20538;-81
2022/01/20 12:29:04;;;;;;;7.28;2.75;;;;;;;4.03;81.82;101452.81;4948452;29;20403;-81